Hlavní strana
METAR-TAF:

METAR-TAF

Letiště :

Letiště Riga

Riga, Lotyšsko

zeměpisná šířka: 56-55N, zeměpisná délka: 023-58E, výška: 10 m

Aktuální stav počasí

Zpráva byla vytvořena před 27 minutami, v 21:20 UTC
Severozápadní vítr 4 kt, proměnlivý mezi západním a severním
Teplota 2°C
Vlhkost vzduchu 93%
Tlak 1027 hPa
Viditelnost 10 km a více
Žádná oblačnost pod 1500 m, nevyskytují se cumulonimby.

METAR: EVRA 282120Z 32004KT 280V350 CAVOK 02/01 Q1027 R36/190095 NOSIG

Čas: 23:47 (21:47 UTC)

Předpověď počasí

Zpráva byla vytvořena před 1 hodinou a 47 minutami, v 20:00 UTC
Předpověď platná od 28 v 21 UTC do 01 v 21 UTC
Západojihozápadní vítr 5 kt
Viditelnost 10 km a více
Žádná oblačnost pod 1500 m, nevyskytují se cumulonimby.
Dočasný
od 28 v 21 UTC do 28 v 24 UTC
Viditelnost: 3000 m
kouřmo
Dočasný
od 01 v 00 UTC do 01 v 06 UTC
Viditelnost: 0700 m
ve výšce 100 ft
mlha, mrznoucí mlha

TAF: EVRA 282000Z 2821/0121 24005KT CAVOK TEMPO 2821/2824 3000 BR TEMPO 0100/0106 0700 FG FZFG VV001

Stav a předpovědi počasí z více než 4 000 letišť (zprávy METAR a TAF).

Červené a žluté tečky na mapě představují dostupné meteorologické stanice.

Když kurzor umístíte na tečku, zobrazí se název stanice.

Pak kliknutím zobrazíte stav a předpověď počasí.

Chcete-li změnit mapu, kliknutím na zelené tlačítko se znaménkem +mapu přiblížíte, kliknutím na zelené tlačítko se znaménkem – mapu oddálíte a kliknutím na zelené šipky přejdete na sousední mapy.


METAR-TAF: